createdAt,value
2023-08-14T00:00:40.666Z,0.00
2023-08-14T00:01:40.673Z,0.00
2023-08-14T00:02:40.710Z,0.00
2023-08-14T00:03:40.643Z,0.00
2023-08-14T00:04:40.623Z,0.00
2023-08-14T00:05:40.588Z,0.00
2023-08-14T00:06:40.614Z,0.00
2023-08-14T00:07:40.571Z,0.00
2023-08-14T00:08:40.597Z,0.00
2023-08-14T00:09:40.576Z,0.00
2023-08-14T00:10:40.570Z,0.00
2023-08-14T00:11:40.528Z,0.00
2023-08-14T00:12:40.529Z,0.00
2023-08-14T00:13:40.507Z,0.00
2023-08-14T00:14:40.509Z,0.00
2023-08-14T00:15:40.537Z,0.00
2023-08-14T00:16:40.493Z,0.00
2023-08-14T00:17:40.579Z,0.00
2023-08-14T00:18:40.461Z,0.00
2023-08-14T00:19:40.475Z,0.00
2023-08-14T00:20:40.452Z,0.00
2023-08-14T00:21:40.477Z,0.00
2023-08-14T00:22:40.438Z,0.00
2023-08-14T00:23:40.419Z,0.00
2023-08-14T00:24:40.389Z,0.00
2023-08-14T00:25:40.415Z,0.00
2023-08-14T00:26:40.431Z,0.00
2023-08-14T00:27:40.405Z,0.00
2023-08-14T00:28:40.358Z,0.00
2023-08-14T00:29:40.343Z,0.00
2023-08-14T00:30:40.337Z,0.00
2023-08-14T00:31:40.368Z,0.00
2023-08-14T00:32:40.373Z,0.00
2023-08-14T00:33:40.301Z,0.00
2023-08-14T00:34:40.311Z,0.00
2023-08-14T00:35:40.314Z,0.00
2023-08-14T00:36:40.300Z,0.00
2023-08-14T00:37:40.265Z,0.00
2023-08-14T00:38:40.274Z,0.00
2023-08-14T00:39:40.247Z,0.00
2023-08-14T00:40:40.253Z,0.00
2023-08-14T00:41:40.232Z,0.00
2023-08-14T00:42:40.211Z,0.00
2023-08-14T00:43:40.207Z,0.00
2023-08-14T00:44:40.209Z,0.00
2023-08-14T00:45:46.317Z,0.00
2023-08-14T00:46:42.261Z,0.00
2023-08-14T00:47:40.209Z,0.00
2023-08-14T00:48:40.159Z,0.00
2023-08-14T00:49:40.150Z,0.00
2023-08-14T00:50:40.150Z,0.00
2023-08-14T00:51:40.145Z,0.00
2023-08-14T00:52:40.112Z,0.00
2023-08-14T00:53:40.156Z,0.00
2023-08-14T00:54:41.102Z,0.00
2023-08-14T00:55:40.089Z,0.00
2023-08-14T00:56:40.099Z,0.00
2023-08-14T00:57:40.101Z,0.00
2023-08-14T00:58:40.049Z,0.00
2023-08-14T00:59:40.058Z,0.00
2023-08-14T01:00:40.068Z,0.00
2023-08-14T01:01:40.053Z,0.00
2023-08-14T01:02:40.115Z,0.00
2023-08-14T01:03:40.046Z,0.00
2023-08-14T01:04:39.987Z,0.00
2023-08-14T01:05:40.078Z,0.00
2023-08-14T01:06:39.983Z,0.00
2023-08-14T01:07:39.976Z,0.00
2023-08-14T01:08:39.987Z,0.00
2023-08-14T01:09:39.938Z,0.00
2023-08-14T01:10:39.962Z,0.00
2023-08-14T01:11:39.926Z,0.00
2023-08-14T01:12:39.919Z,0.00
2023-08-14T01:13:39.962Z,0.00
2023-08-14T01:14:39.891Z,0.00
2023-08-14T01:15:39.879Z,0.00
2023-08-14T01:16:39.949Z,0.00
2023-08-14T01:17:39.918Z,0.00
2023-08-14T01:18:39.881Z,0.00
2023-08-14T01:19:39.842Z,0.00
2023-08-14T01:20:39.837Z,0.00
2023-08-14T01:21:39.849Z,0.00
2023-08-14T01:22:39.830Z,0.00
2023-08-14T01:23:39.831Z,0.00
2023-08-14T01:24:39.920Z,0.00
2023-08-14T01:25:39.780Z,0.00
2023-08-14T01:26:39.776Z,0.00
2023-08-14T01:27:39.768Z,0.00
2023-08-14T01:28:39.793Z,0.00
2023-08-14T01:29:39.769Z,0.00
2023-08-14T01:30:39.771Z,0.00
2023-08-14T01:31:39.737Z,0.00
2023-08-14T01:32:39.741Z,0.00
2023-08-14T01:33:39.717Z,0.00
2023-08-14T01:34:39.720Z,0.00
2023-08-14T01:35:39.703Z,0.00
2023-08-14T01:36:39.704Z,0.00
2023-08-14T01:37:39.700Z,0.00
2023-08-14T01:38:39.680Z,0.00
2023-08-14T01:39:39.663Z,0.00
2023-08-14T01:40:39.683Z,0.00
2023-08-14T01:41:39.653Z,0.00
2023-08-14T01:42:39.690Z,0.00
2023-08-14T01:43:39.629Z,0.00
2023-08-14T01:44:39.639Z,0.00
2023-08-14T01:45:39.589Z,0.00
2023-08-14T01:46:39.586Z,0.00
2023-08-14T01:47:39.619Z,0.00
2023-08-14T01:48:39.562Z,0.00
2023-08-14T01:49:39.555Z,0.00
2023-08-14T01:50:39.543Z,0.00
2023-08-14T01:51:39.535Z,0.00
2023-08-14T01:52:39.549Z,0.00
2023-08-14T01:53:39.523Z,0.00
2023-08-14T01:54:39.506Z,0.00
2023-08-14T01:55:39.486Z,0.00
2023-08-14T01:56:39.484Z,0.00
2023-08-14T01:57:39.470Z,0.00
2023-08-14T01:58:39.500Z,0.00
2023-08-14T01:59:39.466Z,0.00
2023-08-14T02:00:39.444Z,0.00
2023-08-14T02:01:39.503Z,0.00
2023-08-14T02:02:39.537Z,0.00
2023-08-14T02:03:39.492Z,0.00
2023-08-14T02:04:39.401Z,0.00
2023-08-14T02:05:40.392Z,0.00
2023-08-14T02:06:39.434Z,0.00
2023-08-14T02:07:39.385Z,0.00
2023-08-14T02:08:39.384Z,0.00
2023-08-14T02:09:39.385Z,0.00
2023-08-14T02:10:39.342Z,0.00
2023-08-14T02:11:39.361Z,0.00
2023-08-14T02:12:39.320Z,0.00
2023-08-14T02:13:39.337Z,0.00
2023-08-14T02:14:39.329Z,0.00
2023-08-14T02:15:39.335Z,0.00
2023-08-14T02:16:39.307Z,0.00
2023-08-14T02:17:39.332Z,0.00
2023-08-14T02:18:39.269Z,0.00
2023-08-14T02:19:39.257Z,0.00
2023-08-14T02:21:11.200Z,0.00
2023-08-14T02:21:39.234Z,0.00
2023-08-14T02:22:39.242Z,0.00
2023-08-14T02:23:39.215Z,0.00
2023-08-14T02:24:39.212Z,0.00
2023-08-14T02:25:39.222Z,0.00
2023-08-14T02:26:39.190Z,0.00
2023-08-14T02:27:39.177Z,0.00
2023-08-14T02:28:39.191Z,0.00
2023-08-14T02:29:39.177Z,0.00
2023-08-14T02:30:39.170Z,0.00
2023-08-14T02:31:39.184Z,0.00
2023-08-14T02:32:39.181Z,0.00
2023-08-14T02:33:39.121Z,0.00
2023-08-14T02:34:39.106Z,0.00
2023-08-14T02:35:39.124Z,0.00
2023-08-14T02:36:39.120Z,0.00
2023-08-14T02:37:39.173Z,0.00
2023-08-14T02:38:39.059Z,0.00
2023-08-14T02:39:39.058Z,0.00
2023-08-14T02:40:39.044Z,0.00
2023-08-14T02:41:39.051Z,0.00
2023-08-14T02:42:39.048Z,0.00
2023-08-14T02:43:39.019Z,0.00
2023-08-14T02:44:39.027Z,0.00
2023-08-14T02:45:39.046Z,0.00
2023-08-14T02:46:38.981Z,0.00
2023-08-14T02:47:39.003Z,0.00
2023-08-14T02:48:38.971Z,0.00
2023-08-14T02:49:38.963Z,0.00
2023-08-14T02:50:38.966Z,0.00
2023-08-14T02:51:38.940Z,0.00
2023-08-14T02:52:38.925Z,0.00
2023-08-14T02:53:38.898Z,0.00
2023-08-14T02:54:38.968Z,0.00
2023-08-14T02:55:38.932Z,0.00
2023-08-14T02:56:38.890Z,0.00
2023-08-14T02:57:38.869Z,0.00
2023-08-14T02:58:38.885Z,0.00
2023-08-14T02:59:38.864Z,0.00
2023-08-14T03:00:38.841Z,0.00
2023-08-14T03:01:38.841Z,0.00
2023-08-14T03:02:38.917Z,0.00
2023-08-14T03:03:38.858Z,0.00
2023-08-14T03:04:38.794Z,0.00
2023-08-14T03:05:38.777Z,0.00
2023-08-14T03:06:38.783Z,0.00
2023-08-14T03:07:38.781Z,0.00
2023-08-14T03:08:38.793Z,0.00
2023-08-14T03:09:38.748Z,0.00
2023-08-14T03:10:38.752Z,0.00
2023-08-14T03:11:38.733Z,0.00
2023-08-14T03:12:38.724Z,0.00
2023-08-14T03:13:38.739Z,0.00
2023-08-14T03:14:38.714Z,0.00
2023-08-14T03:15:38.695Z,0.00
2023-08-14T03:16:38.733Z,0.00
2023-08-14T03:17:38.733Z,0.00
2023-08-14T03:18:38.659Z,0.00
2023-08-14T03:19:38.748Z,0.00
2023-08-14T03:20:38.649Z,0.00
2023-08-14T03:21:38.630Z,0.00
2023-08-14T03:22:38.630Z,0.00
2023-08-14T03:23:38.642Z,0.00
2023-08-14T03:24:38.620Z,0.00
2023-08-14T03:25:38.590Z,0.00
2023-08-14T03:26:38.643Z,0.00
2023-08-14T03:27:38.567Z,0.00
2023-08-14T03:28:38.559Z,0.00
2023-08-14T03:29:38.582Z,0.00
2023-08-14T03:30:38.588Z,0.00
2023-08-14T03:31:38.536Z,0.00
2023-08-14T03:32:38.525Z,0.00
2023-08-14T03:33:38.514Z,0.00
2023-08-14T03:34:38.485Z,0.00
2023-08-14T03:35:38.503Z,0.00
2023-08-14T03:36:38.477Z,0.00
2023-08-14T03:37:38.493Z,0.00
2023-08-14T03:38:38.479Z,0.00
2023-08-14T03:39:38.434Z,0.00
2023-08-14T03:40:38.425Z,0.00
2023-08-14T03:41:38.449Z,0.00
2023-08-14T03:42:38.427Z,0.00
2023-08-14T03:43:38.432Z,0.00
2023-08-14T03:44:38.389Z,0.00
2023-08-14T03:45:38.402Z,0.00
2023-08-14T03:46:38.400Z,0.00
2023-08-14T03:47:38.388Z,5.62
2023-08-14T03:48:38.350Z,5.62
2023-08-14T03:49:38.366Z,5.62
2023-08-14T03:50:38.341Z,5.62
2023-08-14T03:51:38.327Z,5.62
2023-08-14T03:52:38.332Z,5.62
2023-08-14T03:53:38.329Z,5.62
2023-08-14T03:54:38.322Z,11.25
2023-08-14T03:55:38.278Z,11.25
2023-08-14T03:56:38.302Z,11.25
2023-08-14T03:57:38.277Z,11.25
2023-08-14T03:58:38.253Z,11.25
2023-08-14T03:59:38.277Z,11.25
2023-08-14T04:00:38.233Z,11.25
2023-08-14T04:01:38.229Z,11.25
2023-08-14T04:02:38.318Z,11.25
2023-08-14T04:03:38.301Z,11.25
2023-08-14T04:04:38.198Z,16.88
2023-08-14T04:05:38.205Z,16.88
2023-08-14T04:06:38.235Z,16.88
2023-08-14T04:07:38.168Z,16.88
2023-08-14T04:08:38.150Z,22.50
2023-08-14T04:09:38.149Z,22.50
2023-08-14T04:10:38.327Z,28.12
2023-08-14T04:11:38.140Z,33.75
2023-08-14T04:12:38.124Z,39.38
2023-08-14T04:13:38.108Z,39.38
2023-08-14T04:14:38.121Z,45.00
2023-08-14T04:15:38.130Z,50.62
2023-08-14T04:16:38.122Z,56.25
2023-08-14T04:17:38.085Z,56.25
2023-08-14T04:18:38.084Z,61.88
2023-08-14T04:19:38.065Z,61.88
2023-08-14T04:20:38.033Z,61.88
2023-08-14T04:21:38.015Z,67.50
2023-08-14T04:22:38.014Z,67.50
2023-08-14T04:23:38.019Z,73.12
2023-08-14T04:24:38.002Z,78.75
2023-08-14T04:25:37.994Z,84.38
2023-08-14T04:26:37.980Z,90.00
2023-08-14T04:27:37.970Z,90.00
2023-08-14T04:28:37.980Z,95.62
2023-08-14T04:29:37.951Z,95.62
2023-08-14T04:30:37.942Z,101.25
2023-08-14T04:31:38.043Z,112.50
2023-08-14T04:32:37.987Z,129.38
2023-08-14T04:33:37.949Z,146.25
2023-08-14T04:34:37.889Z,185.62
2023-08-14T04:35:37.909Z,241.88
2023-08-14T04:36:37.908Z,281.25
2023-08-14T04:37:37.884Z,309.38
2023-08-14T04:38:37.867Z,315.00
2023-08-14T04:39:37.871Z,286.88
2023-08-14T04:40:37.843Z,371.25
2023-08-14T04:41:37.836Z,596.25
2023-08-14T04:42:39.625Z,478.12
2023-08-14T04:43:38.843Z,495.00
2023-08-14T04:44:37.789Z,427.50
2023-08-14T04:45:37.906Z,483.75
2023-08-14T04:46:53.590Z,483.75
2023-08-14T04:47:39.873Z,399.38
2023-08-14T04:48:37.800Z,545.62
2023-08-14T04:49:37.760Z,748.12
2023-08-14T04:50:37.743Z,388.12
2023-08-14T04:51:37.723Z,545.62
2023-08-14T04:52:37.739Z,646.88
2023-08-14T04:53:37.706Z,731.25
2023-08-14T04:54:37.696Z,843.75
2023-08-14T04:55:37.689Z,1192.50
2023-08-14T04:56:37.666Z,973.12
2023-08-14T04:57:38.698Z,832.50
2023-08-14T04:58:37.655Z,815.62
2023-08-14T04:59:37.709Z,1040.62
2023-08-14T05:00:37.665Z,1299.38
2023-08-14T05:01:37.638Z,1423.12
2023-08-14T05:02:37.644Z,1018.12
2023-08-14T05:03:37.620Z,1147.50
2023-08-14T05:04:37.614Z,1631.25
2023-08-14T05:05:37.596Z,1569.38
2023-08-14T05:06:37.564Z,1771.88
2023-08-14T05:07:37.566Z,1845.00
2023-08-14T05:08:37.588Z,1586.25
2023-08-14T05:09:37.547Z,1541.25
2023-08-14T05:10:37.551Z,635.62
2023-08-14T05:11:37.529Z,241.88
2023-08-14T05:12:37.533Z,208.12
2023-08-14T05:13:37.504Z,196.88
2023-08-14T05:14:37.485Z,180.00
2023-08-14T05:15:37.523Z,168.75
2023-08-14T05:16:37.483Z,163.12
2023-08-14T05:17:37.535Z,168.75
2023-08-14T05:18:37.476Z,174.38
2023-08-14T05:19:37.452Z,185.62
2023-08-14T05:20:37.444Z,191.25
2023-08-14T05:21:37.430Z,202.50
2023-08-14T05:22:37.415Z,219.38
2023-08-14T05:23:37.416Z,208.12
2023-08-14T05:24:37.419Z,213.75
2023-08-14T05:25:37.401Z,230.62
2023-08-14T05:26:37.386Z,236.25
2023-08-14T05:27:37.382Z,247.50
2023-08-14T05:28:37.387Z,270.00
2023-08-14T05:29:37.374Z,298.12
2023-08-14T05:30:37.326Z,326.25
2023-08-14T05:31:37.365Z,354.38
2023-08-14T05:32:38.040Z,489.38
2023-08-14T05:33:37.316Z,438.75
2023-08-14T05:34:37.324Z,1726.88
2023-08-14T05:35:37.292Z,540.00
2023-08-14T05:36:37.268Z,675.00
2023-08-14T05:37:37.268Z,455.62
2023-08-14T05:38:37.246Z,450.00
2023-08-14T05:39:37.273Z,500.62
2023-08-14T05:40:37.231Z,1451.25
2023-08-14T05:41:37.237Z,1051.88
2023-08-14T05:42:37.230Z,1895.62
2023-08-14T05:43:37.298Z,1985.62
2023-08-14T05:44:37.210Z,781.88
2023-08-14T05:45:37.216Z,669.38
2023-08-14T05:46:37.177Z,624.38
2023-08-14T05:47:37.175Z,652.50
2023-08-14T05:48:37.164Z,1361.25
2023-08-14T05:49:37.168Z,2896.88
2023-08-14T05:50:37.160Z,1783.12
2023-08-14T05:51:37.116Z,1406.25
2023-08-14T05:52:37.152Z,1608.75
2023-08-14T05:53:37.109Z,2188.12
2023-08-14T05:54:37.097Z,1687.50
2023-08-14T05:55:37.078Z,2615.62
2023-08-14T05:56:37.081Z,3060.00
2023-08-14T05:57:37.076Z,3138.75
2023-08-14T05:58:37.055Z,3088.12
2023-08-14T05:59:37.044Z,3048.75
2023-08-14T06:00:37.035Z,3155.62
2023-08-14T06:01:37.046Z,3234.38
2023-08-14T06:02:37.044Z,3183.75
2023-08-14T06:03:44.108Z,2390.62
2023-08-14T06:04:38.096Z,1288.12
2023-08-14T06:05:37.004Z,3026.25
2023-08-14T06:06:36.983Z,3296.25
2023-08-14T06:07:38.188Z,3330.00
2023-08-14T06:08:37.963Z,2925.00
2023-08-14T06:09:36.976Z,2272.50
2023-08-14T06:10:36.952Z,3431.25
2023-08-14T06:11:37.068Z,3448.12
2023-08-14T06:12:36.948Z,1102.50
2023-08-14T06:13:36.909Z,2340.00
2023-08-14T06:14:40.084Z,3386.25
2023-08-14T06:15:36.901Z,1389.38
2023-08-14T06:16:36.910Z,3667.50
2023-08-14T06:17:36.915Z,3892.50
2023-08-14T06:18:36.863Z,3999.38
2023-08-14T06:19:36.859Z,3577.50
2023-08-14T06:20:36.846Z,3695.62
2023-08-14T06:21:36.923Z,3937.50
2023-08-14T06:22:37.961Z,3436.88
2023-08-14T06:23:36.810Z,1676.25
2023-08-14T06:24:36.816Z,1001.25
2023-08-14T06:25:36.809Z,894.38
2023-08-14T06:26:36.831Z,781.88
2023-08-14T06:27:36.793Z,635.62
2023-08-14T06:28:36.765Z,562.50
2023-08-14T06:29:36.783Z,568.12
2023-08-14T06:30:36.772Z,658.12
2023-08-14T06:31:37.768Z,641.25
2023-08-14T06:32:36.759Z,680.62
2023-08-14T06:33:38.906Z,534.38
2023-08-14T06:34:36.705Z,540.00
2023-08-14T06:35:36.733Z,534.38
2023-08-14T06:36:36.716Z,568.12
2023-08-14T06:37:36.687Z,601.88
2023-08-14T06:38:36.778Z,641.25
2023-08-14T06:39:36.668Z,646.88
2023-08-14T06:40:36.720Z,691.88
2023-08-14T06:41:36.672Z,781.88
2023-08-14T06:42:36.661Z,759.38
2023-08-14T06:43:36.631Z,793.12
2023-08-14T06:44:36.633Z,1130.62
2023-08-14T06:45:36.602Z,1867.50
2023-08-14T06:46:36.634Z,1552.50
2023-08-14T06:47:36.639Z,1299.38
2023-08-14T06:48:36.575Z,1091.25
2023-08-14T06:49:36.592Z,1063.12
2023-08-14T06:50:36.588Z,1035.00
2023-08-14T06:51:36.550Z,1203.75
2023-08-14T06:52:36.546Z,843.75
2023-08-14T06:53:36.591Z,810.00
2023-08-14T06:54:36.518Z,1158.75
2023-08-14T06:55:36.530Z,1788.75
2023-08-14T06:56:36.528Z,2649.38
2023-08-14T06:57:36.494Z,1704.38
2023-08-14T06:58:36.467Z,1164.38
2023-08-14T06:59:36.481Z,1687.50
2023-08-14T07:00:36.522Z,1783.12
2023-08-14T07:01:36.483Z,2722.50
2023-08-14T07:02:36.510Z,3155.62
2023-08-14T07:03:36.533Z,4128.75
2023-08-14T07:04:36.493Z,3093.75
2023-08-14T07:05:36.416Z,2390.62
2023-08-14T07:06:36.419Z,3712.50
2023-08-14T07:07:37.213Z,2255.62
2023-08-14T07:08:36.385Z,1490.62
2023-08-14T07:09:36.391Z,2019.38
2023-08-14T07:10:36.378Z,1811.25
2023-08-14T07:11:36.367Z,1423.12
2023-08-14T07:12:36.401Z,1659.38
2023-08-14T07:13:36.345Z,1980.00
2023-08-14T07:14:36.339Z,2131.88
2023-08-14T07:15:38.326Z,3453.75
2023-08-14T07:16:36.362Z,3560.62
2023-08-14T07:17:36.326Z,3555.00
2023-08-14T07:18:36.308Z,3189.38
2023-08-14T07:19:36.274Z,2154.38
2023-08-14T07:20:36.283Z,3375.00
2023-08-14T07:21:36.282Z,3346.88
2023-08-14T07:22:36.263Z,3729.38
2023-08-14T07:23:36.258Z,3690.00
2023-08-14T07:24:36.248Z,3729.38
2023-08-14T07:25:36.229Z,3774.38
2023-08-14T07:26:36.288Z,3633.75
2023-08-14T07:27:36.221Z,3391.88
2023-08-14T07:28:36.188Z,3628.12
2023-08-14T07:29:36.541Z,3543.75
2023-08-14T07:30:36.212Z,3498.75
2023-08-14T07:31:36.179Z,3459.38
2023-08-14T07:32:36.252Z,3453.75
2023-08-14T07:33:36.172Z,3453.75
2023-08-14T07:34:36.136Z,3493.12
2023-08-14T07:35:36.140Z,3532.50
2023-08-14T07:36:37.960Z,3448.12
2023-08-14T07:37:37.116Z,3504.38
2023-08-14T07:38:36.092Z,3442.50
2023-08-14T07:39:36.078Z,3470.62
2023-08-14T07:40:36.119Z,3605.62
2023-08-14T07:41:36.087Z,3628.12
2023-08-14T07:42:36.063Z,3718.12
2023-08-14T07:43:36.087Z,3605.62
2023-08-14T07:44:36.041Z,3200.62
2023-08-14T07:45:36.027Z,3048.75
2023-08-14T07:46:36.017Z,2604.38
2023-08-14T07:47:37.065Z,3616.88
2023-08-14T07:48:36.032Z,3605.62
2023-08-14T07:49:36.026Z,3566.25
2023-08-14T07:50:35.995Z,3571.88
2023-08-14T07:51:35.975Z,2913.75
2023-08-14T07:52:35.971Z,3380.62
2023-08-14T07:53:35.995Z,3352.50
2023-08-14T07:54:35.951Z,3206.25
2023-08-14T07:55:35.959Z,3391.88
2023-08-14T07:56:35.951Z,3262.50
2023-08-14T07:57:35.934Z,1738.12
2023-08-14T07:58:35.937Z,1203.75
2023-08-14T07:59:35.932Z,1771.88
2023-08-14T08:00:35.900Z,1068.75
2023-08-14T08:01:35.911Z,1068.75
2023-08-14T08:02:35.885Z,1620.00
2023-08-14T08:03:35.880Z,1293.75
2023-08-14T08:05:36.902Z,1350.00
2023-08-14T08:06:43.910Z,1243.12
2023-08-14T08:07:37.827Z,1316.25
2023-08-14T08:08:35.877Z,1400.62
2023-08-14T08:09:35.822Z,1546.88
2023-08-14T08:10:35.827Z,2818.12
2023-08-14T08:11:35.807Z,2868.75
2023-08-14T08:12:35.801Z,2120.62
2023-08-14T08:13:35.787Z,3166.88
2023-08-14T08:14:35.784Z,2970.00
2023-08-14T08:15:35.781Z,2891.25
2023-08-14T08:16:35.767Z,2908.12
2023-08-14T08:17:35.757Z,2896.88
2023-08-14T08:18:35.737Z,2767.50
2023-08-14T08:19:35.813Z,2790.00
2023-08-14T08:20:35.737Z,2806.88
2023-08-14T08:22:07.624Z,2767.50
2023-08-14T08:22:35.720Z,2700.00
2023-08-14T08:23:35.715Z,2649.38
2023-08-14T08:24:35.705Z,2475.00
2023-08-14T08:25:35.706Z,2565.00
2023-08-14T08:26:35.694Z,2548.12
2023-08-14T08:27:35.705Z,2503.12
2023-08-14T08:28:35.660Z,2233.12
2023-08-14T08:29:35.644Z,1980.00
2023-08-14T08:30:35.687Z,1074.38
2023-08-14T08:31:35.650Z,1068.75
2023-08-14T08:32:35.646Z,1147.50
2023-08-14T08:33:35.646Z,1575.00
2023-08-14T08:34:35.604Z,1603.12
2023-08-14T08:35:35.619Z,1603.12
2023-08-14T08:36:35.601Z,978.75
2023-08-14T08:37:35.584Z,911.25
2023-08-14T08:38:35.568Z,978.75
2023-08-14T08:39:35.587Z,1310.62
2023-08-14T08:40:35.545Z,1625.62
2023-08-14T08:41:35.569Z,1653.75
2023-08-14T08:42:35.552Z,1687.50
2023-08-14T08:43:35.584Z,1878.75
2023-08-14T08:44:37.403Z,2013.75
2023-08-14T08:45:35.544Z,2143.12
2023-08-14T08:46:35.502Z,2559.38
2023-08-14T08:47:36.146Z,2497.50
2023-08-14T08:49:35.531Z,2013.75
2023-08-14T08:50:35.473Z,1833.75
2023-08-14T08:51:36.469Z,1878.75
2023-08-14T08:52:35.442Z,1738.12
2023-08-14T08:53:35.446Z,1575.00
2023-08-14T08:54:35.425Z,1631.25
2023-08-14T08:55:35.468Z,1608.75
2023-08-14T08:56:35.411Z,1625.62
2023-08-14T08:57:37.489Z,1636.88
2023-08-14T08:58:37.429Z,1642.50
2023-08-14T08:59:36.392Z,1665.00
2023-08-14T09:00:35.415Z,1659.38
2023-08-14T09:01:35.415Z,1434.38
2023-08-14T09:02:35.522Z,1383.75
2023-08-14T09:03:35.436Z,1389.38
2023-08-14T09:04:35.441Z,1558.12
2023-08-14T09:05:35.344Z,1575.00
2023-08-14T09:06:35.340Z,1501.88
2023-08-14T09:07:35.315Z,1518.75
2023-08-14T09:08:37.415Z,1501.88
2023-08-14T09:09:35.287Z,1462.50
2023-08-14T09:10:35.282Z,1395.00
2023-08-14T09:11:35.269Z,1468.12
2023-08-14T09:12:35.274Z,1558.12
2023-08-14T09:13:35.280Z,1597.50
2023-08-14T09:14:35.265Z,1518.75
2023-08-14T09:16:35.238Z,1625.62
2023-08-14T09:17:35.267Z,1350.00
2023-08-14T09:18:35.211Z,1226.25
2023-08-14T09:19:35.207Z,1558.12
2023-08-14T09:20:35.211Z,1513.12
2023-08-14T09:21:35.198Z,1743.75
2023-08-14T09:22:35.236Z,1186.88
2023-08-14T09:23:35.163Z,1108.12
2023-08-14T09:24:35.156Z,967.50
2023-08-14T09:25:35.146Z,916.88
2023-08-14T09:26:36.127Z,928.12
2023-08-14T09:27:36.172Z,916.88
2023-08-14T09:28:35.112Z,905.62
2023-08-14T09:29:35.132Z,900.00
2023-08-14T09:30:35.097Z,922.50
2023-08-14T09:31:35.870Z,995.62
2023-08-14T09:32:35.176Z,1012.50
2023-08-14T09:33:35.172Z,995.62
2023-08-14T09:34:35.063Z,1057.50
2023-08-14T09:35:35.060Z,1113.75
2023-08-14T09:36:35.048Z,1068.75
2023-08-14T09:37:35.057Z,1096.88
2023-08-14T09:38:35.036Z,1057.50
2023-08-14T09:39:35.023Z,1096.88
2023-08-14T09:40:35.024Z,1085.62
2023-08-14T09:41:35.026Z,1096.88
2023-08-14T09:42:35.011Z,1012.50
2023-08-14T09:43:34.999Z,978.75
2023-08-14T09:44:34.997Z,1006.88
2023-08-14T09:45:34.974Z,1035.00
2023-08-14T09:46:35.128Z,1046.25
2023-08-14T09:47:35.227Z,1063.12
2023-08-14T09:48:34.957Z,1051.88
2023-08-14T09:49:34.926Z,1057.50
2023-08-14T09:50:34.936Z,1080.00
2023-08-14T09:51:34.942Z,1158.75
2023-08-14T09:52:34.914Z,1125.00
2023-08-14T09:53:34.898Z,1141.88
2023-08-14T09:54:35.415Z,1153.12
2023-08-14T09:55:34.885Z,1181.25
2023-08-14T09:56:34.909Z,1366.88
2023-08-14T09:57:34.861Z,1186.88
2023-08-14T09:58:34.834Z,1119.38
2023-08-14T09:59:34.835Z,1215.00
2023-08-14T10:00:34.850Z,1361.25
2023-08-14T10:01:34.867Z,1271.25
2023-08-14T10:02:34.913Z,1248.75
2023-08-14T10:03:34.832Z,1237.50
2023-08-14T10:04:34.805Z,1164.38
2023-08-14T10:05:34.935Z,1237.50
2023-08-14T10:06:34.806Z,1029.38
2023-08-14T10:07:34.795Z,1012.50
2023-08-14T10:08:34.781Z,1029.38
2023-08-14T10:09:34.752Z,1170.00
2023-08-14T10:10:34.767Z,1147.50
2023-08-14T10:11:34.738Z,1057.50
2023-08-14T10:12:34.718Z,1023.75
2023-08-14T10:13:34.757Z,1029.38
2023-08-14T10:14:34.698Z,1029.38
2023-08-14T10:15:34.689Z,1023.75
2023-08-14T10:16:34.800Z,1040.62
2023-08-14T10:17:34.678Z,1074.38
2023-08-14T10:18:34.785Z,1096.88
2023-08-14T10:19:34.649Z,1080.00
2023-08-14T10:20:35.069Z,1012.50
2023-08-14T10:21:34.629Z,1001.25
2023-08-14T10:22:34.611Z,1023.75
2023-08-14T10:23:34.633Z,1102.50
2023-08-14T10:24:34.603Z,1057.50
2023-08-14T10:25:34.590Z,1057.50
2023-08-14T10:26:34.650Z,984.38
2023-08-14T10:27:34.609Z,967.50
2023-08-14T10:28:34.585Z,1198.12
2023-08-14T10:29:34.594Z,1254.38
2023-08-14T10:30:34.610Z,1327.50
2023-08-14T10:31:34.528Z,1248.75
2023-08-14T10:32:34.584Z,1299.38
2023-08-14T10:33:34.514Z,1271.25
2023-08-14T10:34:34.542Z,1220.62
2023-08-14T10:35:34.522Z,1327.50
2023-08-14T10:36:34.557Z,1164.38
2023-08-14T10:37:34.521Z,1209.38
2023-08-14T10:38:34.497Z,1012.50
2023-08-14T10:39:34.518Z,978.75
2023-08-14T10:40:34.456Z,967.50
2023-08-14T10:41:34.454Z,1063.12
2023-08-14T10:42:34.457Z,995.62
2023-08-14T10:43:34.426Z,967.50
2023-08-14T10:44:34.408Z,978.75
2023-08-14T10:45:34.453Z,1029.38
2023-08-14T10:46:34.440Z,1029.38
2023-08-14T10:47:34.391Z,1029.38
2023-08-14T10:48:34.373Z,1051.88
2023-08-14T10:49:34.360Z,1046.25
2023-08-14T10:50:34.350Z,1006.88
2023-08-14T10:51:34.388Z,967.50
2023-08-14T10:52:35.377Z,950.62
2023-08-14T10:53:34.334Z,933.75
2023-08-14T10:54:34.325Z,900.00
2023-08-14T10:55:34.320Z,871.88
2023-08-14T10:56:34.285Z,950.62
2023-08-14T10:57:34.301Z,911.25
2023-08-14T10:58:34.309Z,933.75
2023-08-14T10:59:34.267Z,945.00
2023-08-14T11:00:34.272Z,939.38
2023-08-14T11:01:34.299Z,900.00
2023-08-14T11:02:34.232Z,826.88
2023-08-14T11:03:34.262Z,815.62
2023-08-14T11:04:34.260Z,787.50
2023-08-14T11:05:34.225Z,776.25
2023-08-14T11:06:34.199Z,731.25
2023-08-14T11:07:34.196Z,703.12
2023-08-14T11:08:34.215Z,686.25
2023-08-14T11:09:34.192Z,646.88
2023-08-14T11:10:34.184Z,624.38
2023-08-14T11:11:34.155Z,613.12
2023-08-14T11:12:34.238Z,613.12
2023-08-14T11:13:34.154Z,641.25
2023-08-14T11:14:34.132Z,686.25
2023-08-14T11:15:34.138Z,686.25
2023-08-14T11:16:34.217Z,669.38
2023-08-14T11:17:34.172Z,652.50
2023-08-14T11:18:34.178Z,641.25
2023-08-14T11:19:34.110Z,601.88
2023-08-14T11:20:34.071Z,573.75
2023-08-14T11:21:34.081Z,517.50
2023-08-14T11:22:34.054Z,466.88
2023-08-14T11:23:34.078Z,450.00
2023-08-14T11:24:34.059Z,444.38
2023-08-14T11:25:34.019Z,461.25
2023-08-14T11:26:34.014Z,478.12
2023-08-14T11:27:34.020Z,517.50
2023-08-14T11:28:34.015Z,517.50
2023-08-14T11:29:33.993Z,489.38
2023-08-14T11:30:34.011Z,466.88
2023-08-14T11:31:34.798Z,450.00
2023-08-14T11:32:35.009Z,444.38
2023-08-14T11:33:33.955Z,427.50
2023-08-14T11:34:33.970Z,405.00
2023-08-14T11:35:33.953Z,405.00
2023-08-14T11:36:35.481Z,399.38
2023-08-14T11:37:34.912Z,410.62
2023-08-14T11:38:33.916Z,438.75
2023-08-14T11:39:33.898Z,466.88
2023-08-14T11:40:33.901Z,506.25
2023-08-14T11:41:33.879Z,534.38
2023-08-14T11:42:33.861Z,573.75
2023-08-14T11:43:33.848Z,618.75
2023-08-14T11:44:33.833Z,652.50
2023-08-14T11:45:33.849Z,663.75
2023-08-14T11:46:33.912Z,680.62
2023-08-14T11:47:33.935Z,686.25
2023-08-14T11:48:33.858Z,691.88
2023-08-14T11:49:33.800Z,697.50
2023-08-14T11:50:33.799Z,703.12
2023-08-14T11:51:33.828Z,708.75
2023-08-14T11:52:33.783Z,714.38
2023-08-14T11:53:33.739Z,708.75
2023-08-14T11:54:33.756Z,708.75
2023-08-14T11:55:33.746Z,725.62
2023-08-14T11:56:33.962Z,742.50
2023-08-14T11:57:33.726Z,748.12
2023-08-14T11:58:33.739Z,731.25
2023-08-14T11:59:33.690Z,736.88
2023-08-14T12:00:34.483Z,753.75
2023-08-14T12:01:34.804Z,770.62
2023-08-14T12:02:33.707Z,787.50
2023-08-14T12:03:33.690Z,798.75
2023-08-14T12:04:33.706Z,793.12
2023-08-14T12:05:33.654Z,793.12
2023-08-14T12:06:33.634Z,793.12
2023-08-14T12:07:33.641Z,804.38
2023-08-14T12:08:33.637Z,810.00
2023-08-14T12:09:33.600Z,815.62
2023-08-14T12:10:33.582Z,810.00
2023-08-14T12:11:33.579Z,798.75
2023-08-14T12:12:35.093Z,781.88
2023-08-14T12:13:33.586Z,765.00
2023-08-14T12:14:33.555Z,748.12
2023-08-14T12:15:33.621Z,742.50
2023-08-14T12:16:33.596Z,742.50
2023-08-14T12:17:33.704Z,742.50
2023-08-14T12:18:33.543Z,742.50
2023-08-14T12:19:33.507Z,708.75
2023-08-14T12:20:33.533Z,703.12
2023-08-14T12:21:33.499Z,708.75
2023-08-14T12:22:33.502Z,708.75
2023-08-14T12:23:33.476Z,708.75
2023-08-14T12:24:33.460Z,708.75
2023-08-14T12:25:33.481Z,703.12
2023-08-14T12:26:33.463Z,703.12
2023-08-14T12:27:33.422Z,708.75
2023-08-14T12:28:33.412Z,708.75
2023-08-14T12:29:33.452Z,691.88
2023-08-14T12:30:33.405Z,658.12
2023-08-14T12:31:33.421Z,635.62
2023-08-14T12:32:33.420Z,641.25
2023-08-14T12:33:33.372Z,635.62
2023-08-14T12:34:33.368Z,607.50
2023-08-14T12:35:33.398Z,585.00
2023-08-14T12:36:33.332Z,568.12
2023-08-14T12:37:33.345Z,562.50
2023-08-14T12:38:33.316Z,556.88